Time;durP1;ratioP1;P1;durP2;ratioP2;P2;SDS_P1;SDS_P2;PMS_P1;PMS_P2;Temp;Humidity;BMP_temperature;BMP_pressure;BME280_temperature;BME280_humidity;BME280_pressure;Samples;Min_cycle;Max_cycle;Signal;HPM_P1;HPM_P2
2022/11/13 00:01:33;;;;;;;18.55;16.60;;;;;;;7.97;82.99;102544.25;5051084;28;20166;-65
2022/11/13 00:03:58;;;;;;;18.60;16.70;;;;;;;8.09;82.90;102538.66;5032726;28;20117;-65
2022/11/13 00:06:24;;;;;;;18.90;16.90;;;;;;;8.07;83.52;102545.78;5033324;28;20048;-65
2022/11/13 00:08:54;;;;;;;17.83;16.02;;;;;;;8.09;83.30;102545.72;5051063;28;20068;-65
2022/11/13 00:11:19;;;;;;;21.75;15.90;;;;;;;8.12;82.94;102543.03;5050339;28;20029;-65
2022/11/13 00:13:46;;;;;;;17.40;15.70;;;;;;;7.93;82.85;102539.94;5049220;28;20155;-65
2022/11/13 00:16:14;;;;;;;18.45;15.77;;;;;;;8.01;82.64;102531.81;5050897;28;20077;-65
2022/11/13 00:18:40;;;;;;;17.77;15.98;;;;;;;7.99;83.33;102531.84;5049638;28;20021;-65
2022/11/13 00:21:08;;;;;;;17.63;15.93;;;;;;;7.85;83.05;102520.72;5047329;28;20467;-65
2022/11/13 00:23:35;;;;;;;18.10;15.93;;;;;;;7.95;82.97;102520.47;5030997;28;20431;-65
2022/11/13 00:26:20;;;;;;;17.13;15.30;;;;;;;7.97;82.95;102521.31;5030311;28;20025;-65
2022/11/13 00:28:51;;;;;;;16.90;15.18;;;;;;;7.84;82.58;102525.16;5034448;28;20029;-65
2022/11/13 00:31:16;;;;;;;17.23;15.43;;;;;;;7.79;82.78;102524.38;5034380;28;20063;-65
2022/11/13 00:33:43;;;;;;;16.13;14.48;;;;;;;7.88;81.96;102524.19;5035584;28;20051;-65
2022/11/13 00:36:21;;;;;;;16.65;15.00;;;;;;;7.74;82.42;102521.00;5034404;28;20042;-65
2022/11/13 00:38:47;;;;;;;17.30;14.88;;;;;;;7.74;81.88;102518.34;5041731;28;20037;-65
2022/11/13 00:41:12;;;;;;;16.63;15.07;;;;;;;7.65;82.42;102516.78;5053907;28;20036;-65
2022/11/13 00:43:39;;;;;;;17.02;14.73;;;;;;;7.54;82.40;102510.00;5054367;28;20054;-65
2022/11/13 00:46:05;;;;;;;16.95;14.95;;;;;;;7.58;82.74;102509.03;5035841;28;20030;-65
2022/11/13 00:48:31;;;;;;;16.92;15.15;;;;;;;7.52;82.63;102520.63;5053139;28;20028;-65
2022/11/13 00:50:57;;;;;;;16.58;15.00;;;;;;;7.60;81.97;102508.09;5053003;28;20029;-65
2022/11/13 00:53:22;;;;;;;17.00;14.05;;;;;;;7.68;81.84;102499.97;5053867;28;20027;-65
2022/11/13 00:55:48;;;;;;;16.58;14.85;;;;;;;7.61;81.49;102501.00;5050111;28;20025;-65
2022/11/13 00:58:14;;;;;;;16.70;14.43;;;;;;;7.47;82.21;102504.88;5052872;28;20040;-65
2022/11/13 01:00:41;;;;;;;16.23;14.48;;;;;;;7.46;81.66;102500.44;5054020;28;20486;-65
2022/11/13 01:03:07;;;;;;;15.07;13.50;;;;;;;7.48;81.56;102484.53;5054187;28;20022;-65
2022/11/13 01:05:40;;;;;;;16.55;13.93;;;;;;;7.54;81.82;102502.06;5049448;28;20090;-65
2022/11/13 01:08:06;;;;;;;15.43;13.85;;;;;;;7.37;81.56;102498.03;5032419;28;20029;-65
2022/11/13 01:10:33;;;;;;;15.73;13.32;;;;;;;7.26;82.03;102498.28;5031742;28;20443;-65
2022/11/13 01:12:59;;;;;;;16.17;13.30;;;;;;;7.16;81.63;102478.22;5043202;28;20029;-65
2022/11/13 01:15:25;;;;;;;14.10;12.70;;;;;;;7.24;81.66;102494.81;5052356;28;20078;-65
2022/11/13 01:17:53;;;;;;;16.00;14.35;;;;;;;7.16;81.38;102488.81;5051864;28;20039;-65
2022/11/13 01:20:19;;;;;;;15.25;13.85;;;;;;;7.31;81.57;102492.00;5053358;28;20021;-65
2022/11/13 01:22:45;;;;;;;14.77;13.32;;;;;;;7.28;81.49;102490.31;5053170;28;20028;-65
2022/11/13 01:25:10;;;;;;;16.02;14.35;;;;;;;7.29;81.38;102484.09;5053036;28;20025;-65
2022/11/13 01:27:36;;;;;;;15.98;14.25;;;;;;;7.30;81.26;102487.63;5050810;28;20036;-65
2022/11/13 01:30:02;;;;;;;15.50;14.00;;;;;;;7.33;80.94;102488.44;5042942;28;20028;-65
2022/11/13 01:32:29;;;;;;;15.77;13.98;;;;;;;7.25;81.53;102495.66;5033666;28;20355;-65
2022/11/13 01:34:54;;;;;;;15.52;13.93;;;;;;;7.28;81.56;102487.66;5033175;28;20053;-65
2022/11/13 01:37:20;;;;;;;15.18;13.68;;;;;;;7.21;81.86;102483.41;5048208;28;20036;-65
2022/11/13 01:39:45;;;;;;;14.57;13.18;;;;;;;7.29;81.32;102486.75;5049018;28;20145;-65
2022/11/13 01:42:10;;;;;;;15.05;13.57;;;;;;;7.10;82.03;102485.44;5050232;28;20071;-65
2022/11/13 01:44:53;;;;;;;15.52;13.32;;;;;;;7.08;81.76;102489.88;5053478;28;20372;-65
2022/11/13 01:47:23;;;;;;;15.05;13.52;;;;;;;7.00;82.40;102490.03;5040906;28;20074;-65
2022/11/13 01:49:53;;;;;;;14.75;13.25;;;;;;;7.05;82.19;102483.72;5031614;28;20527;-65
2022/11/13 01:52:28;;;;;;;15.32;13.73;;;;;;;6.95;82.73;102470.75;5033854;28;20664;-65
2022/11/13 01:54:59;;;;;;;14.50;13.07;;;;;;;7.03;82.48;102471.47;5032738;28;20057;-65
2022/11/13 01:57:24;;;;;;;14.65;13.35;;;;;;;6.94;82.47;102469.91;5031997;28;20073;-65
2022/11/13 01:59:57;;;;;;;15.73;13.75;;;;;;;6.94;82.46;102459.31;5032908;28;20053;-65
2022/11/13 02:02:22;;;;;;;14.48;13.07;;;;;;;6.92;81.54;102458.47;5032791;28;20021;-65
2022/11/13 02:04:47;;;;;;;15.07;13.32;;;;;;;6.89;81.25;102452.38;5049019;28;20025;-65
2022/11/13 02:07:16;;;;;;;13.55;12.15;;;;;;;6.82;81.92;102448.97;5052467;28;20040;-65
2022/11/13 02:09:50;;;;;;;15.02;13.50;;;;;;;6.89;82.06;102450.59;5051961;28;20037;-65
2022/11/13 02:12:31;;;;;;;15.02;13.00;;;;;;;6.87;82.08;102455.06;5050880;28;20016;-65
2022/11/13 02:14:58;;;;;;;14.65;13.15;;;;;;;6.93;81.70;102443.47;5050924;28;20054;-65
2022/11/13 02:17:31;;;;;;;14.50;13.00;;;;;;;6.79;81.78;102451.69;5051292;28;20029;-65
2022/11/13 02:20:01;;;;;;;15.80;13.70;;;;;;;6.78;81.79;102440.25;5050873;28;20044;-65
2022/11/13 02:22:44;;;;;;;14.35;12.98;;;;;;;6.88;81.61;102437.41;5064431;28;20017;-65
2022/11/13 02:25:11;;;;;;;15.55;14.05;;;;;;;6.69;82.22;102429.00;5032463;28;20108;-65
2022/11/13 02:27:46;;;;;;;16.45;14.75;;;;;;;6.72;82.35;102431.59;5045323;28;20036;-65
2022/11/13 02:30:11;;;;;;;16.08;14.00;;;;;;;6.65;82.76;102430.84;5052127;28;20475;-64
2022/11/13 02:32:49;;;;;;;16.15;14.57;;;;;;;6.68;83.24;102427.28;5052684;28;20031;-65
2022/11/13 02:35:21;;;;;;;18.17;16.58;;;;;;;6.56;83.24;102418.69;5051038;28;20437;-65
2022/11/13 02:37:47;;;;;;;19.00;15.98;;;;;;;6.66;83.21;102426.44;5039209;28;20491;-64
2022/11/13 02:40:13;;;;;;;17.70;16.10;;;;;;;6.70;83.62;102421.03;5049291;28;20056;-65
2022/11/13 02:42:41;;;;;;;17.92;16.23;;;;;;;6.74;83.43;102420.09;5050591;28;20043;-65
2022/11/13 02:45:07;;;;;;;17.80;16.00;;;;;;;6.58;83.48;102421.28;5053239;28;20036;-65
2022/11/13 02:47:33;;;;;;;16.83;15.23;;;;;;;6.62;83.85;102420.34;5071942;28;20040;-65
2022/11/13 02:49:58;;;;;;;17.45;15.65;;;;;;;6.60;83.83;102420.38;5070983;28;20032;-65
2022/11/13 02:52:24;;;;;;;17.05;15.35;;;;;;;6.64;84.02;102415.00;5070607;28;20043;-65
2022/11/13 02:54:50;;;;;;;17.38;15.73;;;;;;;6.55;84.27;102403.72;5042974;28;20107;-65
2022/11/13 02:57:15;;;;;;;17.88;15.50;;;;;;;6.66;84.19;102405.28;5032126;28;20061;-65
2022/11/13 02:59:44;;;;;;;15.63;14.20;;;;;;;6.61;83.27;102405.38;5031792;28;20112;-65
2022/11/13 03:02:09;;;;;;;15.52;13.75;;;;;;;6.62;84.01;102400.94;5031878;28;20033;-65
2022/11/13 03:04:35;;;;;;;17.17;14.40;;;;;;;6.66;82.66;102407.94;5033804;28;20037;-65
2022/11/13 03:07:01;;;;;;;15.48;14.07;;;;;;;6.57;83.44;102399.28;5032106;28;20064;-65
2022/11/13 03:09:27;;;;;;;16.33;14.65;;;;;;;6.58;83.46;102398.38;5033152;28;20095;-64
2022/11/13 03:11:54;;;;;;;15.23;13.68;;;;;;;6.49;83.72;102401.22;5024596;28;20424;-65
2022/11/13 03:14:20;;;;;;;15.23;13.73;;;;;;;6.51;83.80;102404.72;5014364;28;20105;-65
2022/11/13 03:16:45;;;;;;;16.10;14.50;;;;;;;6.41;83.98;102391.69;5049052;28;20128;-65
2022/11/13 03:19:14;;;;;;;15.77;14.05;;;;;;;6.37;84.64;102389.13;5050994;28;20381;-64
2022/11/13 03:21:41;;;;;;;14.77;13.27;;;;;;;6.36;84.33;102382.09;5048439;28;20032;-65
2022/11/13 03:24:07;;;;;;;15.30;13.70;;;;;;;6.33;83.97;102381.31;5050869;28;20048;-65
2022/11/13 03:26:32;;;;;;;16.13;13.27;;;;;;;6.24;83.84;102384.16;5050727;28;20029;-65
2022/11/13 03:28:58;;;;;;;15.02;13.60;;;;;;;6.26;84.61;102385.81;5049399;28;20691;-65
2022/11/13 03:31:25;;;;;;;14.68;13.23;;;;;;;6.42;85.63;102380.25;5049295;28;20040;-65
2022/11/13 03:33:56;;;;;;;14.25;12.80;;;;;;;6.46;85.15;102376.63;5031155;28;20040;-65
2022/11/13 03:36:21;;;;;;;14.55;12.80;;;;;;;6.56;85.59;102379.06;5044333;28;20073;-65
2022/11/13 03:38:47;;;;;;;13.85;12.48;;;;;;;6.35;85.21;102364.53;5031656;28;20106;-65
2022/11/13 03:41:17;;;;;;;13.00;11.55;;;;;;;6.43;85.72;102372.28;5030793;28;20569;-65
2022/11/13 03:43:43;;;;;;;13.40;11.93;;;;;;;6.47;86.20;102371.31;5031746;28;20033;-65
2022/11/13 03:46:11;;;;;;;12.98;11.68;;;;;;;6.52;85.88;102369.44;5042210;28;20039;-65
2022/11/13 03:48:36;;;;;;;13.15;11.75;;;;;;;6.69;85.65;102360.28;5049858;28;20528;-65
2022/11/13 03:51:02;;;;;;;13.70;12.30;;;;;;;6.81;85.10;102362.63;5049934;28;20120;-65
2022/11/13 03:53:29;;;;;;;13.50;12.15;;;;;;;6.84;84.65;102357.28;5051350;28;20057;-65
2022/11/13 03:55:58;;;;;;;12.65;11.20;;;;;;;6.99;84.74;102356.03;5032954;28;20521;-65
2022/11/13 03:58:23;;;;;;;12.82;11.25;;;;;;;6.98;84.70;102360.47;5050272;28;20049;-65
2022/11/13 04:00:53;;;;;;;13.77;11.43;;;;;;;7.06;84.33;102352.34;5049515;28;20135;-65
2022/11/13 04:03:19;;;;;;;12.80;11.45;;;;;;;7.05;84.02;102342.66;5053072;28;20566;-65
2022/11/13 04:05:48;;;;;;;12.40;11.20;;;;;;;7.12;83.76;102343.38;5051289;28;20124;-65
2022/11/13 04:08:13;;;;;;;12.23;10.97;;;;;;;7.10;83.84;102334.63;5033958;28;20049;-65
2022/11/13 04:10:39;;;;;;;12.68;11.38;;;;;;;7.08;84.27;102329.34;5034502;28;20032;-65
2022/11/13 04:13:04;;;;;;;13.43;11.65;;;;;;;7.04;84.62;102333.00;5034221;28;20400;-65
2022/11/13 04:15:30;;;;;;;12.13;10.93;;;;;;;7.12;83.68;102332.78;5033664;28;20026;-65
2022/11/13 04:17:56;;;;;;;12.73;10.52;;;;;;;7.10;83.61;102331.97;5036659;28;20025;-65
2022/11/13 04:20:21;;;;;;;11.85;10.32;;;;;;;7.15;83.32;102336.25;5058963;28;20029;-65
2022/11/13 04:22:47;;;;;;;12.25;11.02;;;;;;;7.17;83.83;102326.47;5066635;28;20429;-65
2022/11/13 04:25:13;;;;;;;11.93;10.73;;;;;;;7.17;83.67;102318.53;5066160;28;20029;-65
2022/11/13 04:27:39;;;;;;;12.10;10.77;;;;;;;7.28;83.05;102323.56;5066922;28;20104;-65
2022/11/13 04:30:05;;;;;;;12.40;11.10;;;;;;;7.25;82.59;102327.16;5053929;28;20044;-65
2022/11/13 04:32:31;;;;;;;12.13;10.88;;;;;;;7.31;82.29;102317.34;5054054;28;20028;-65
2022/11/13 04:34:57;;;;;;;11.90;10.68;;;;;;;7.35;82.54;102317.19;5054454;28;20021;-65
2022/11/13 04:37:25;;;;;;;12.10;10.77;;;;;;;7.31;82.06;102315.56;5053729;28;20033;-65
2022/11/13 04:39:50;;;;;;;14.15;10.82;;;;;;;7.29;82.14;102314.72;5038360;28;20046;-65
2022/11/13 04:45:00;;;;;;;12.80;10.85;;;;;;;7.29;82.12;102317.38;5034521;28;20500;-65
2022/11/13 04:47:25;;;;;;;11.30;10.10;;;;;;;7.26;81.86;102307.75;5034520;28;20025;-65
2022/11/13 04:49:54;;;;;;;13.55;10.82;;;;;;;7.24;81.90;102304.28;5035221;28;20075;-65
2022/11/13 04:52:21;;;;;;;12.52;11.10;;;;;;;7.23;81.72;102304.28;5032989;28;20060;-65
2022/11/13 04:54:47;;;;;;;12.43;11.13;;;;;;;7.23;81.87;102317.53;5034226;28;20041;-65
2022/11/13 04:57:13;;;;;;;13.68;11.05;;;;;;;7.16;82.20;102311.53;5066101;28;20396;-65
2022/11/13 04:59:38;;;;;;;11.57;10.40;;;;;;;7.12;82.45;102315.16;5064424;28;20026;-65
2022/11/13 05:02:04;;;;;;;12.25;10.80;;;;;;;7.15;82.19;102309.81;5034306;28;20540;-65
2022/11/13 05:04:29;;;;;;;13.52;11.57;;;;;;;7.13;82.37;102310.75;5062669;28;20166;-65
2022/11/13 05:06:55;;;;;;;12.77;10.70;;;;;;;7.12;82.55;102308.97;5054692;28;20034;-65
2022/11/13 05:09:20;;;;;;;11.93;10.75;;;;;;;7.01;82.73;102317.22;5034042;28;20034;-65
2022/11/13 05:11:45;;;;;;;12.48;11.05;;;;;;;7.05;82.87;102314.44;5034358;28;20030;-65
2022/11/13 05:14:13;;;;;;;13.30;10.63;;;;;;;6.87;83.32;102314.03;5062043;28;20025;-65
2022/11/13 05:16:38;;;;;;;12.68;11.38;;;;;;;6.90;83.31;102304.22;5032859;28;20025;-65
2022/11/13 05:19:05;;;;;;;12.63;10.88;;;;;;;6.88;82.94;102306.03;5032979;28;20028;-65
2022/11/13 05:21:35;;;;;;;13.73;10.88;;;;;;;6.72;83.73;102312.59;5033515;28;20025;-65
2022/11/13 05:24:01;;;;;;;;;;;;;;;6.88;82.78;102307.81;5034215;28;20013;-65
2022/11/13 05:26:27;;;;;;;12.10;10.30;;;;;;;6.58;83.27;102310.28;5033887;28;19916;-65
2022/11/13 05:28:52;;;;;;;12.77;10.70;;;;;;;6.60;84.02;102311.97;5033763;28;20040;-65
2022/11/13 05:31:17;;;;;;;11.95;10.65;;;;;;;6.55;83.68;102303.28;5033292;28;20080;-65
2022/11/13 05:33:45;;;;;;;13.07;10.98;;;;;;;6.51;84.04;102300.75;5048849;28;20038;-65
2022/11/13 05:36:15;;;;;;;12.30;11.18;;;;;;;6.47;83.60;102289.41;5045172;28;20043;-65
2022/11/13 05:38:41;;;;;;;12.18;10.95;;;;;;;6.36;83.42;102296.69;5053363;28;20033;-65
2022/11/13 05:41:10;;;;;;;11.73;10.63;;;;;;;6.25;84.54;102294.28;5052679;28;20583;-65
2022/11/13 05:43:39;;;;;;;16.80;11.20;;;;;;;6.22;83.62;102299.63;5053260;28;20029;-65
2022/11/13 05:46:14;;;;;;;13.00;10.13;;;;;;;6.16;83.02;102298.88;5036372;28;20508;-65
2022/11/13 05:48:43;;;;;;;11.45;10.18;;;;;;;6.12;83.86;102304.25;5042503;28;20048;-65
2022/11/13 05:51:15;;;;;;;12.68;11.10;;;;;;;6.10;83.40;102306.03;5033064;28;20040;-65
2022/11/13 05:53:41;;;;;;;12.10;10.43;;;;;;;6.03;83.30;102295.63;5033223;28;20060;-65
2022/11/13 05:56:10;;;;;;;12.35;10.95;;;;;;;5.97;84.13;102304.56;5033955;28;20441;-65
2022/11/13 05:58:37;;;;;;;12.85;10.98;;;;;;;5.94;83.60;102309.88;5032025;28;20029;-65
2022/11/13 06:01:13;;;;;;;12.05;10.82;;;;;;;6.07;83.58;102308.75;5036048;28;20025;-65
2022/11/13 06:03:39;;;;;;;12.55;11.35;;;;;;;5.90;83.24;102297.63;5066587;28;20028;-65
2022/11/13 06:06:09;;;;;;;13.18;10.95;;;;;;;5.83;83.71;102307.44;5072913;28;20103;-65
2022/11/13 06:08:35;;;;;;;12.00;10.80;;;;;;;5.79;83.19;102300.47;5073004;28;20024;-65
2022/11/13 06:11:05;;;;;;;12.18;11.07;;;;;;;5.82;83.12;102289.84;5058705;28;20028;-65
2022/11/13 06:13:31;;;;;;;12.10;10.90;;;;;;;5.83;82.83;102298.66;5051277;28;20115;-65
2022/11/13 06:16:01;;;;;;;12.55;11.35;;;;;;;5.84;82.53;102284.53;5047933;28;20040;-64
2022/11/13 06:18:27;;;;;;;12.13;10.90;;;;;;;5.81;83.05;102285.47;5036144;28;20049;-65
2022/11/13 06:20:53;;;;;;;13.55;11.77;;;;;;;5.66;83.09;102275.22;5049246;28;20041;-65
2022/11/13 06:23:21;;;;;;;12.70;11.50;;;;;;;5.59;83.00;102282.41;5052589;28;20029;-65
2022/11/13 06:25:49;;;;;;;11.82;10.73;;;;;;;5.62;82.22;102276.19;5051600;28;20029;-65
2022/11/13 06:28:17;;;;;;;12.32;10.95;;;;;;;5.68;82.86;102279.56;5050884;28;20420;-65
2022/11/13 06:30:43;;;;;;;13.07;11.10;;;;;;;5.70;83.23;102269.84;5050973;28;20095;-65
2022/11/13 06:33:08;;;;;;;13.20;11.68;;;;;;;5.53;83.22;102266.69;5046967;28;20128;-65
2022/11/13 06:35:36;;;;;;;13.02;11.60;;;;;;;5.52;83.45;102267.56;5036866;28;20040;-65
2022/11/13 06:38:02;;;;;;;13.32;12.02;;;;;;;5.47;83.03;102265.03;5033250;28;20164;-68
2022/11/13 06:40:30;;;;;;;12.85;11.63;;;;;;;5.46;83.04;102263.28;5030226;28;20562;-67
2022/11/13 06:42:57;;;;;;;13.25;11.13;;;;;;;5.45;82.50;102258.03;5030754;28;20034;-67
2022/11/13 06:45:23;;;;;;;13.32;11.93;;;;;;;5.47;82.76;102258.84;5031874;28;20037;-67
2022/11/13 06:47:49;;;;;;;12.77;11.57;;;;;;;5.42;82.22;102260.72;5031845;28;20040;-67
2022/11/13 06:50:17;;;;;;;13.38;11.48;;;;;;;5.39;82.74;102260.78;5014209;28;20151;-67
2022/11/13 06:52:44;;;;;;;12.85;11.55;;;;;;;5.41;82.72;102262.50;5019599;28;20037;-67
2022/11/13 06:55:10;;;;;;;13.35;11.90;;;;;;;5.37;82.91;102259.94;5050235;28;20480;-68
2022/11/13 06:57:35;;;;;;;13.48;11.80;;;;;;;5.37;82.24;102259.94;5046539;28;20040;-67
2022/11/13 07:00:02;;;;;;;15.18;12.25;;;;;;;5.34;83.23;102252.94;5030595;28;20041;-67
2022/11/13 07:02:28;;;;;;;12.93;11.63;;;;;;;5.29;82.77;102261.84;5031895;28;20029;-67
2022/11/13 07:04:54;;;;;;;14.50;12.13;;;;;;;5.20;83.23;102245.28;5031952;28;20033;-67
2022/11/13 07:07:19;;;;;;;14.40;12.77;;;;;;;5.25;84.18;102250.47;5030852;28;20033;-67
2022/11/13 07:09:47;;;;;;;16.23;12.93;;;;;;;5.24;84.19;102260.16;5039849;28;20554;-68
2022/11/13 07:12:13;;;;;;;13.82;12.43;;;;;;;5.36;84.51;102255.56;5051272;28;20029;-68
2022/11/13 07:14:39;;;;;;;13.52;11.88;;;;;;;5.32;83.82;102259.16;5050045;28;20036;-68
2022/11/13 07:17:04;;;;;;;13.75;12.30;;;;;;;5.36;83.95;102250.31;5050471;28;20037;-67
2022/11/13 07:19:29;;;;;;;15.90;12.70;;;;;;;5.37;84.17;102258.16;5048375;28;20056;-68
2022/11/13 07:21:57;;;;;;;14.40;12.18;;;;;;;5.41;83.81;102251.97;5050233;28;20095;-67
2022/11/13 07:24:23;;;;;;;14.27;12.05;;;;;;;5.42;83.98;102252.81;5049537;28;20352;-67
2022/11/13 07:26:48;;;;;;;15.30;13.35;;;;;;;5.28;84.82;102249.56;5032796;28;20179;-68
2022/11/13 07:29:15;;;;;;;16.75;13.50;;;;;;;5.29;84.48;102246.88;5047180;28;20112;-67
2022/11/13 07:31:40;;;;;;;14.32;12.70;;;;;;;5.29;84.48;102236.34;5030055;28;20038;-67
2022/11/13 07:34:06;;;;;;;16.67;12.93;;;;;;;5.29;83.90;102238.09;5030205;28;20537;-67
2022/11/13 07:36:32;;;;;;;16.23;13.38;;;;;;;5.24;84.23;102246.13;5030931;28;20052;-67
2022/11/13 07:38:57;;;;;;;14.48;12.98;;;;;;;5.39;84.66;102244.97;5037410;28;20084;-67
2022/11/13 07:41:23;;;;;;;16.27;13.13;;;;;;;5.37;83.98;102250.25;5038191;28;20107;-67
2022/11/13 07:43:48;;;;;;;16.33;13.85;;;;;;;5.39;84.50;102248.47;5045415;28;20035;-68
2022/11/13 07:46:13;;;;;;;20.05;14.32;;;;;;;5.41;84.76;102248.41;5056415;28;20028;-67
2022/11/13 07:48:39;;;;;;;18.15;14.02;;;;;;;5.42;84.35;102242.25;5056607;28;20116;-67
2022/11/13 07:51:07;;;;;;;17.52;14.32;;;;;;;5.42;84.32;102243.13;5056192;28;20353;-67
2022/11/13 07:53:32;;;;;;;15.85;13.50;;;;;;;5.42;85.08;102240.50;5056206;28;20419;-67
2022/11/13 07:56:04;;;;;;;18.42;13.98;;;;;;;5.51;84.21;102246.50;5057323;28;20127;-67
2022/11/13 07:58:32;;;;;;;15.90;14.30;;;;;;;5.57;84.36;102246.38;5057503;28;20029;-67
2022/11/13 08:01:05;;;;;;;16.85;14.05;;;;;;;5.48;84.90;102236.88;5054486;28;20549;-68
2022/11/13 08:03:31;;;;;;;17.20;15.38;;;;;;;5.47;85.20;102240.38;5057559;28;20545;-67
2022/11/13 08:06:06;;;;;;;17.88;15.10;;;;;;;5.55;85.92;102240.25;5057464;28;20026;-67
2022/11/13 08:08:32;;;;;;;16.33;14.15;;;;;;;5.57;86.09;102241.09;5057430;28;20451;-67
2022/11/13 08:10:57;;;;;;;19.02;15.60;;;;;;;5.56;86.20;102245.50;5053910;28;20025;-68
2022/11/13 08:13:23;;;;;;;18.23;16.17;;;;;;;5.72;86.38;102238.16;5039708;28;20123;-67
2022/11/13 08:15:48;;;;;;;19.05;16.80;;;;;;;5.69;86.41;102236.44;5056141;28;20033;-67
2022/11/13 08:18:14;;;;;;;18.55;16.65;;;;;;;5.69;87.15;102231.16;5056740;28;20052;-68
2022/11/13 08:20:39;;;;;;;18.42;16.02;;;;;;;5.95;86.87;102231.56;5057410;28;20075;-68
2022/11/13 08:23:08;;;;;;;17.48;15.75;;;;;;;5.82;87.41;102231.75;5053933;28;20040;-67
2022/11/13 08:25:35;;;;;;;16.88;15.05;;;;;;;5.96;87.59;102230.63;5055537;28;20036;-68
2022/11/13 08:28:00;;;;;;;16.83;14.02;;;;;;;5.94;87.54;102225.38;5039582;28;20388;-66
2022/11/13 08:30:28;;;;;;;16.38;14.65;;;;;;;6.08;87.76;102233.00;5055966;28;20107;-65
2022/11/13 08:32:54;;;;;;;15.30;13.77;;;;;;;5.99;87.53;102226.16;5055610;28;20021;-65
2022/11/13 08:35:20;;;;;;;14.68;13.13;;;;;;;6.19;87.29;102232.78;5043980;28;20017;-65
2022/11/13 08:37:48;;;;;;;14.88;13.43;;;;;;;6.23;87.54;102224.72;5047571;28;20476;-65
2022/11/13 08:40:14;;;;;;;14.40;13.10;;;;;;;6.36;87.37;102218.28;5046959;28;20044;-64
2022/11/13 08:42:42;;;;;;;14.68;13.27;;;;;;;6.46;86.58;102204.84;5044527;28;20025;-64
2022/11/13 08:45:08;;;;;;;14.70;13.18;;;;;;;6.47;87.37;102215.41;5049947;28;20033;-63
2022/11/13 08:47:34;;;;;;;14.23;12.82;;;;;;;6.57;87.30;102216.91;5052792;28;20034;-64
2022/11/13 08:49:59;;;;;;;16.23;13.40;;;;;;;6.62;87.30;102215.91;5034104;28;20032;-63
2022/11/13 08:52:24;;;;;;;15.32;13.73;;;;;;;6.72;86.76;102214.78;5046816;28;20547;-64
2022/11/13 08:54:51;;;;;;;15.40;13.60;;;;;;;6.75;87.12;102210.28;5051122;28;20080;-63
2022/11/13 08:57:17;;;;;;;13.88;12.45;;;;;;;6.70;87.19;102198.09;5032942;28;20029;-63
2022/11/13 08:59:42;;;;;;;14.98;12.68;;;;;;;6.80;87.41;102205.75;5035148;28;20474;-63
2022/11/13 09:02:12;;;;;;;15.80;13.77;;;;;;;6.95;87.95;102211.56;5016256;28;20476;-63
2022/11/13 09:04:38;;;;;;;16.65;12.57;;;;;;;7.11;85.75;102212.88;5040750;28;20357;-64
2022/11/13 09:07:04;;;;;;;14.38;12.88;;;;;;;7.24;84.46;102209.00;5051044;28;20028;-64
2022/11/13 09:09:33;;;;;;;14.60;13.20;;;;;;;7.26;85.82;102211.59;5049133;28;20219;-64
2022/11/13 09:11:58;;;;;;;13.82;12.32;;;;;;;7.33;85.31;102210.53;5045985;28;20041;-64
2022/11/13 09:14:26;;;;;;;14.32;12.93;;;;;;;7.43;84.67;102211.13;5052031;28;20025;-64
2022/11/13 09:16:52;;;;;;;15.30;12.32;;;;;;;7.64;81.47;102199.06;5050052;28;20033;-64
2022/11/13 09:19:19;;;;;;;13.05;11.65;;;;;;;7.79;81.36;102189.81;5053692;28;20056;-64
2022/11/13 09:21:45;;;;;;;14.05;11.90;;;;;;;7.93;80.68;102199.06;5052689;28;20491;-64
2022/11/13 09:24:11;;;;;;;14.18;12.75;;;;;;;8.05;80.38;102192.53;5035410;28;20110;-64
2022/11/13 09:26:36;;;;;;;15.38;12.18;;;;;;;8.07;81.59;102181.91;5037832;28;20056;-63
2022/11/13 09:29:02;;;;;;;12.45;11.23;;;;;;;8.12;81.16;102187.94;5041709;28;20396;-63
2022/11/13 09:31:27;;;;;;;13.10;11.77;;;;;;;8.29;80.31;102187.38;5048873;28;20051;-63
2022/11/13 09:33:53;;;;;;;18.13;13.63;;;;;;;8.32;81.08;102189.94;5049825;28;20028;-63
2022/11/13 09:36:18;;;;;;;16.60;13.27;;;;;;;8.51;79.72;102198.19;5052627;28;20104;-64
2022/11/13 09:38:44;;;;;;;12.93;11.68;;;;;;;8.68;77.55;102195.88;5035259;28;20503;-64
2022/11/13 09:41:14;;;;;;;12.70;11.05;;;;;;;8.82;78.60;102192.72;5044915;28;20516;-63
2022/11/13 09:43:48;;;;;;;12.18;11.07;;;;;;;8.92;77.41;102198.59;5046536;28;20040;-63
2022/11/13 09:46:37;;;;;;;12.70;11.40;;;;;;;9.11;76.48;102202.34;5033006;28;20037;-64
2022/11/13 09:49:13;;;;;;;12.88;11.55;;;;;;;9.21;77.25;102203.75;5052887;28;20041;-63
2022/11/13 09:51:50;;;;;;;12.48;9.95;;;;;;;9.46;75.86;102190.44;5049769;28;20040;-64
2022/11/13 09:54:16;;;;;;;11.27;10.10;;;;;;;9.63;76.13;102200.44;5051484;28;20124;-64
2022/11/13 09:57:02;;;;;;;14.43;11.20;;;;;;;9.84;77.66;102196.13;5052375;28;20059;-64
2022/11/13 09:59:36;;;;;;;12.18;9.85;;;;;;;10.35;70.34;102195.03;5051388;28;20482;-64
2022/11/13 10:02:38;;;;;;;10.20;9.18;;;;;;;10.80;70.37;102188.72;5042457;28;20083;-64
2022/11/13 10:05:44;;;;;;;9.93;8.93;;;;;;;11.25;69.20;102190.31;5031428;28;20037;-64
2022/11/13 10:08:27;;;;;;;10.90;9.05;;;;;;;11.67;67.89;102188.44;5033067;28;20109;-64
2022/11/13 10:11:20;;;;;;;12.32;9.15;;;;;;;12.14;68.83;102188.03;5032338;28;20480;-64
2022/11/13 10:13:50;;;;;;;10.30;8.48;;;;;;;12.72;63.50;102186.03;5051819;28;20032;-65
2022/11/13 10:16:38;;;;;;;7.97;7.18;;;;;;;13.29;64.16;102196.47;5045671;28;20036;-65
2022/11/13 10:19:25;;;;;;;8.68;7.30;;;;;;;13.97;61.12;102191.03;5047942;28;20116;-64
2022/11/13 10:22:01;;;;;;;11.90;7.95;;;;;;;14.26;59.91;102193.84;5032535;28;20108;-65
2022/11/13 10:24:34;;;;;;;10.05;7.22;;;;;;;14.47;56.85;102189.06;5031469;28;20029;-66
2022/11/13 10:27:08;;;;;;;10.27;8.10;;;;;;;15.10;57.50;102183.56;5033384;28;20119;-65
2022/11/13 10:29:34;;;;;;;7.72;7.00;;;;;;;15.49;52.76;102184.75;5032372;28;20029;-65
2022/11/13 10:32:16;;;;;;;9.27;7.07;;;;;;;15.90;54.45;102173.25;5033721;28;20028;-65
2022/11/13 10:34:47;;;;;;;7.95;6.70;;;;;;;16.03;50.78;102170.63;5046592;28;20151;-65
2022/11/13 10:37:29;;;;;;;10.00;6.93;;;;;;;16.20;55.45;102165.03;5050911;28;20063;-65
2022/11/13 10:39:55;;;;;;;10.85;6.93;;;;;;;16.19;51.01;102165.16;5046051;28;20045;-66
2022/11/13 10:42:28;;;;;;;8.40;6.40;;;;;;;16.37;51.17;102155.00;5033315;28;20028;-65
2022/11/13 10:44:58;;;;;;;9.43;6.00;;;;;;;16.18;47.57;102160.72;5033068;28;20111;-65
2022/11/13 10:47:26;;;;;;;12.18;6.60;;;;;;;16.28;50.97;102149.28;5051561;28;20017;-64
2022/11/13 10:49:58;;;;;;;6.83;5.97;;;;;;;16.70;47.13;102141.13;5037142;28;20037;-65
2022/11/13 10:52:27;;;;;;;8.02;5.85;;;;;;;17.12;46.48;102141.81;5031992;28;20079;-65
2022/11/13 10:55:21;;;;;;;7.95;5.53;;;;;;;17.41;50.83;102137.97;5030083;28;20068;-65
2022/11/13 10:57:58;;;;;;;7.47;5.88;;;;;;;17.47;49.41;102136.63;5032253;28;20060;-66
2022/11/13 11:00:34;;;;;;;7.10;5.43;;;;;;;17.77;45.48;102132.72;5040485;28;20052;-65
2022/11/13 11:03:00;;;;;;;5.90;5.30;;;;;;;17.95;43.76;102133.25;5043155;28;20031;-65
2022/11/13 11:05:27;;;;;;;6.88;5.90;;;;;;;18.12;43.29;102119.41;5049294;28;20036;-64
2022/11/13 11:07:56;;;;;;;7.78;6.25;;;;;;;18.12;43.80;102114.88;5042059;28;20108;-65
2022/11/13 11:10:25;;;;;;;9.02;6.10;;;;;;;18.29;44.38;102118.97;5031884;28;20427;-65
2022/11/13 11:12:53;;;;;;;6.80;6.00;;;;;;;18.61;42.81;102118.34;5046008;28;20059;-65
2022/11/13 11:15:50;;;;;;;6.75;5.90;;;;;;;19.26;46.10;102120.44;5038899;28;20021;-65
2022/11/13 11:18:37;;;;;;;7.22;5.28;;;;;;;19.17;46.42;102120.31;5038929;28;20403;-65
2022/11/13 11:21:11;;;;;;;6.00;5.40;;;;;;;19.34;40.83;102125.25;5043985;28;20048;-65
2022/11/13 11:23:39;;;;;;;5.82;5.15;;;;;;;19.47;40.56;102119.72;5035966;28;20025;-66
2022/11/13 11:26:19;;;;;;;7.70;5.70;;;;;;;19.99;40.87;102114.63;5047872;28;20035;-65
2022/11/13 11:28:51;;;;;;;6.45;5.78;;;;;;;19.83;39.84;102113.22;5039286;28;20056;-65